Time;durP1;ratioP1;P1;durP2;ratioP2;P2;SDS_P1;SDS_P2;PMS_P1;PMS_P2;Temp;Humidity;BMP_temperature;BMP_pressure;BME280_temperature;BME280_humidity;BME280_pressure;Samples;Min_cycle;Max_cycle;Signal;HPM_P1;HPM_P2
2023/10/26 00:00:24;;;;;;;5.47;1.60;;;;;;;;;;5062847;28;20044;-72
2023/10/26 00:02:54;;;;;;;3.75;1.50;;;;;;;;;;5063005;28;20510;-72
2023/10/26 00:05:25;;;;;;;5.65;1.40;;;;;;;;;;5062616;28;20044;-73
2023/10/26 00:07:55;;;;;;;3.25;1.52;;;;;;;;;;5082908;28;20047;-72
2023/10/26 00:10:26;;;;;;;5.45;1.55;;;;;;;;;;5082743;28;20051;-72
2023/10/26 00:12:57;;;;;;;6.47;2.88;;;;;;;;;;5083183;28;20055;-72
2023/10/26 00:15:28;;;;;;;3.97;2.35;;;;;;;;;;5082910;28;20040;-72
2023/10/26 00:17:57;;;;;;;10.80;2.55;;;;;;;;;;5083018;28;20679;-72
2023/10/26 00:20:30;;;;;;;5.68;2.60;;;;;;;;;;5083292;28;20048;-72
2023/10/26 00:23:01;;;;;;;1.90;1.27;;;;;;;;;;5083039;28;20048;-73
2023/10/26 00:25:32;;;;;;;4.47;1.40;;;;;;;;;;5083748;28;20074;-72
2023/10/26 00:28:02;;;;;;;2.42;1.30;;;;;;;;;;5083151;28;20052;-72
2023/10/26 00:30:32;;;;;;;2.97;1.13;;;;;;;;;;5081580;28;20521;-73
2023/10/26 00:33:04;;;;;;;1.83;1.23;;;;;;;;;;5079921;28;20055;-72
2023/10/26 00:35:35;;;;;;;4.35;1.50;;;;;;;;;;5081059;28;20059;-72
2023/10/26 00:38:07;;;;;;;3.63;1.20;;;;;;;;;;5080625;28;20052;-75
2023/10/26 00:40:37;;;;;;;4.93;1.45;;;;;;;;;;5081619;28;20056;-73
2023/10/26 00:43:18;;;;;;;2.05;1.23;;;;;;;;;;5081928;28;20499;-73
2023/10/26 00:45:52;;;;;;;3.85;1.08;;;;;;;;;;5082049;28;20074;-72
2023/10/26 00:48:23;;;;;;;4.95;1.67;;;;;;;;;;5082063;28;20768;-73
2023/10/26 00:50:55;;;;;;;3.00;1.30;;;;;;;;;;5083063;28;20043;-72
2023/10/26 00:53:25;;;;;;;3.63;1.27;;;;;;;;;;5082299;28;20040;-72
2023/10/26 00:55:57;;;;;;;2.40;1.40;;;;;;;;;;5083172;28;20051;-71
2023/10/26 00:58:29;;;;;;;4.07;1.23;;;;;;;;;;5082364;28;20055;-73
2023/10/26 01:01:00;;;;;;;3.38;1.20;;;;;;;;;;5081098;28;20044;-72
2023/10/26 01:03:31;;;;;;;3.95;0.82;;;;;;;;;;5068905;28;20052;-71
2023/10/26 01:06:02;;;;;;;1.20;0.80;;;;;;;;;;5061978;28;20052;-72
2023/10/26 01:08:32;;;;;;;3.45;0.90;;;;;;;;;;5060772;28;20546;-72
2023/10/26 01:11:03;;;;;;;1.55;0.90;;;;;;;;;;5059710;28;20059;-72
2023/10/26 01:13:33;;;;;;;1.52;0.88;;;;;;;;;;5043374;28;20052;-72
2023/10/26 01:16:05;;;;;;;1.13;0.88;;;;;;;;;;5060325;28;20880;-72
2023/10/26 01:18:35;;;;;;;2.25;1.08;;;;;;;;;;5059405;28;20052;-72
2023/10/26 01:21:06;;;;;;;1.85;0.80;;;;;;;;;;5061678;28;20049;-73
2023/10/26 01:23:36;;;;;;;1.73;0.88;;;;;;;;;;5061190;28;20531;-72
2023/10/26 01:26:08;;;;;;;4.70;0.85;;;;;;;;;;5062209;28;20049;-72
2023/10/26 01:28:38;;;;;;;1.60;1.15;;;;;;;;;;5061926;28;20075;-72
2023/10/26 01:31:09;;;;;;;0.88;0.65;;;;;;;;;;5061707;28;20049;-72
2023/10/26 01:33:39;;;;;;;4.22;0.90;;;;;;;;;;5060440;28;20049;-72
2023/10/26 01:36:10;;;;;;;0.90;0.85;;;;;;;;;;5061753;28;20051;-72
2023/10/26 01:38:40;;;;;;;1.25;0.70;;;;;;;;;;5061892;28;20057;-71
2023/10/26 01:41:11;;;;;;;4.28;1.00;;;;;;;;;;5044241;28;20048;-72
2023/10/26 01:43:41;;;;;;;1.25;0.88;;;;;;;;;;5061717;28;20036;-72
2023/10/26 01:46:12;;;;;;;2.00;1.00;;;;;;;;;;5062126;28;20830;-72
2023/10/26 01:48:42;;;;;;;1.00;0.90;;;;;;;;;;5061999;28;20044;-72
2023/10/26 01:51:13;;;;;;;2.17;1.00;;;;;;;;;;5060613;28;20122;-72
2023/10/26 01:53:43;;;;;;;2.38;1.13;;;;;;;;;;5061701;28;20071;-73
2023/10/26 01:56:14;;;;;;;3.38;1.13;;;;;;;;;;5065357;28;20055;-72
2023/10/26 01:58:45;;;;;;;4.05;1.13;;;;;;;;;;5064559;28;20515;-72
2023/10/26 02:01:15;;;;;;;1.10;1.00;;;;;;;;;;5063961;28;20052;-73
2023/10/26 02:03:46;;;;;;;3.90;1.50;;;;;;;;;;5063444;28;20544;-72
2023/10/26 02:06:16;;;;;;;1.95;0.88;;;;;;;;;;5063498;28;20057;-72
2023/10/26 02:08:48;;;;;;;2.88;0.90;;;;;;;;;;5063687;28;20052;-72
2023/10/26 02:11:18;;;;;;;2.42;1.30;;;;;;;;;;5065433;28;20051;-72
2023/10/26 02:13:48;;;;;;;4.60;1.00;;;;;;;;;;5063144;28;20060;-72
2023/10/26 02:16:20;;;;;;;2.28;1.23;;;;;;;;;;5063151;28;20056;-72
2023/10/26 02:18:51;;;;;;;1.65;1.10;;;;;;;;;;5063036;28;20052;-72
2023/10/26 02:21:22;;;;;;;1.45;0.63;;;;;;;;;;5065502;28;20521;-72
2023/10/26 02:23:58;;;;;;;5.43;1.20;;;;;;;;;;5063973;28;20063;-72
2023/10/26 02:26:31;;;;;;;1.30;1.05;;;;;;;;;;5064571;28;20459;-71
2023/10/26 02:29:06;;;;;;;2.63;1.10;;;;;;;;;;5063704;28;20051;-72
2023/10/26 02:31:37;;;;;;;2.33;1.13;;;;;;;;;;5063098;28;20071;-72
2023/10/26 02:34:11;;;;;;;3.33;1.30;;;;;;;;;;5062238;28;20068;-72
2023/10/26 02:36:43;;;;;;;1.20;1.10;;;;;;;;;;5063554;28;20408;-72
2023/10/26 02:39:14;;;;;;;2.17;1.00;;;;;;;;;;5064856;28;20048;-72
2023/10/26 02:41:45;;;;;;;3.85;1.20;;;;;;;;;;5063911;28;20515;-71
2023/10/26 02:44:15;;;;;;;13.07;1.80;;;;;;;;;;5064846;28;20049;-72
2023/10/26 02:46:47;;;;;;;2.25;1.38;;;;;;;;;;5064252;28;20495;-72
2023/10/26 02:49:19;;;;;;;2.97;0.98;;;;;;;;;;5062647;28;20537;-72
2023/10/26 02:51:53;;;;;;;2.03;1.17;;;;;;;;;;5065140;28;20048;-71
2023/10/26 02:54:27;;;;;;;1.10;1.00;;;;;;;;;;5064216;28;20055;-72
2023/10/26 02:56:57;;;;;;;4.78;1.20;;;;;;;;;;5065143;28;20098;-72
2023/10/26 02:59:28;;;;;;;2.33;1.08;;;;;;;;;;5064643;28;20056;-72
2023/10/26 03:01:58;;;;;;;3.75;1.65;;;;;;;;;;5064751;28;20495;-72
2023/10/26 03:04:55;;;;;;;3.55;1.10;;;;;;;;;;5062819;28;20068;-72
2023/10/26 03:07:28;;;;;;;2.80;1.23;;;;;;;;;;5058729;28;20060;-72
2023/10/26 03:10:34;;;;;;;4.03;1.33;;;;;;;;;;5062141;28;20823;-72
2023/10/26 03:13:08;;;;;;;1.77;1.40;;;;;;;;;;5063740;28;20041;-72
2023/10/26 03:15:39;;;;;;;3.53;1.30;;;;;;;;;;5064350;28;20043;-72
2023/10/26 03:18:32;;;;;;;3.60;1.20;;;;;;;;;;5063855;28;20059;-72
2023/10/26 03:21:04;;;;;;;1.92;1.00;;;;;;;;;;5063782;28;20049;-73
2023/10/26 03:23:36;;;;;;;2.00;1.20;;;;;;;;;;5063641;28;20514;-72
2023/10/26 03:26:10;;;;;;;2.55;1.20;;;;;;;;;;5064013;28;20495;-72
2023/10/26 03:28:42;;;;;;;4.90;1.02;;;;;;;;;;5064168;28;20056;-72
2023/10/26 03:31:15;;;;;;;3.40;1.27;;;;;;;;;;5062894;28;20417;-72
2023/10/26 03:33:45;;;;;;;3.35;1.17;;;;;;;;;;5063649;28;20414;-72
2023/10/26 03:36:17;;;;;;;2.50;1.10;;;;;;;;;;5063692;28;20052;-73
2023/10/26 03:38:50;;;;;;;3.33;1.10;;;;;;;;;;5064224;28;20411;-72
2023/10/26 03:41:20;;;;;;;2.70;1.13;;;;;;;;;;5063804;28;20059;-72
2023/10/26 03:43:54;;;;;;;3.92;1.20;;;;;;;;;;5063617;28;20051;-71
2023/10/26 03:46:24;;;;;;;5.90;1.15;;;;;;;;;;5063570;28;20037;-72
2023/10/26 03:48:54;;;;;;;3.00;1.10;;;;;;;;;;5063301;28;20044;-72
2023/10/26 03:51:25;;;;;;;1.95;1.10;;;;;;;;;;5063824;28;20048;-72
2023/10/26 03:53:56;;;;;;;1.25;1.10;;;;;;;;;;5061595;28;20048;-72
2023/10/26 03:56:28;;;;;;;1.88;1.15;;;;;;;;;;5063223;28;20051;-71
2023/10/26 03:58:58;;;;;;;1.42;0.75;;;;;;;;;;5062825;28;20431;-72
2023/10/26 04:01:28;;;;;;;1.27;0.90;;;;;;;;;;5060921;28;20056;-72
2023/10/26 04:03:59;;;;;;;1.63;1.30;;;;;;;;;;5063275;28;20045;-72
2023/10/26 04:06:32;;;;;;;3.72;1.00;;;;;;;;;;5063221;28;20396;-72
2023/10/26 04:09:04;;;;;;;1.75;1.00;;;;;;;;;;5062883;28;20053;-72
2023/10/26 04:11:44;;;;;;;3.03;1.20;;;;;;;;;;5063503;28;20055;-72
2023/10/26 04:14:15;;;;;;;3.40;1.27;;;;;;;;;;5063368;28;20491;-71
2023/10/26 04:16:47;;;;;;;3.60;0.80;;;;;;;;;;5063342;28;20407;-72
2023/10/26 04:19:18;;;;;;;1.55;1.00;;;;;;;;;;5060208;28;20044;-74
2023/10/26 04:21:49;;;;;;;2.35;0.90;;;;;;;;;;5062154;28;20551;-72
2023/10/26 04:24:19;;;;;;;1.23;0.90;;;;;;;;;;5062825;28;20048;-72
2023/10/26 04:26:50;;;;;;;4.90;0.98;;;;;;;;;;5062037;28;20488;-72
2023/10/26 04:29:20;;;;;;;4.57;1.02;;;;;;;;;;5062528;28;20665;-72
2023/10/26 04:31:51;;;;;;;2.90;1.30;;;;;;;;;;5062834;28;20044;-72
2023/10/26 04:34:31;;;;;;;2.40;1.10;;;;;;;;;;5060524;28;20052;-72
2023/10/26 04:37:11;;;;;;;1.30;0.90;;;;;;;;;;5061713;28;20052;-72
2023/10/26 04:39:43;;;;;;;1.52;1.13;;;;;;;;;;5062321;28;20523;-72
2023/10/26 04:42:14;;;;;;;5.05;1.00;;;;;;;;;;5061014;28;20059;-71
2023/10/26 04:44:44;;;;;;;1.33;1.00;;;;;;;;;;5062096;28;20059;-72
2023/10/26 04:47:15;;;;;;;4.70;1.00;;;;;;;;;;5062352;28;20391;-72
2023/10/26 04:49:45;;;;;;;5.25;1.33;;;;;;;;;;5062836;28;20056;-72
2023/10/26 04:52:18;;;;;;;3.53;1.20;;;;;;;;;;5062997;28;20044;-72
2023/10/26 04:54:48;;;;;;;3.78;1.27;;;;;;;;;;5062472;28;20055;-71
2023/10/26 04:57:19;;;;;;;1.80;1.00;;;;;;;;;;5061802;28;20049;-72
2023/10/26 04:59:49;;;;;;;4.60;1.25;;;;;;;;;;5061928;28;20048;-72
2023/10/26 05:02:22;;;;;;;2.55;1.00;;;;;;;;;;5060210;28;20049;-73
2023/10/26 05:05:00;;;;;;;2.53;0.98;;;;;;;;;;5058703;28;20067;-73
2023/10/26 05:07:32;;;;;;;2.03;1.00;;;;;;;;;;5062149;28;20049;-72
2023/10/26 05:10:04;;;;;;;3.97;1.00;;;;;;;;;;5062253;28;20111;-72
2023/10/26 05:12:34;;;;;;;1.90;1.40;;;;;;;;;;5061894;28;20053;-72
2023/10/26 05:15:05;;;;;;;4.97;1.05;;;;;;;;;;5061979;28;20045;-72
2023/10/26 05:17:38;;;;;;;7.93;1.90;;;;;;;;;;5062372;28;20757;-72
2023/10/26 05:20:09;;;;;;;3.08;1.20;;;;;;;;;;5062409;28;20040;-72
2023/10/26 05:22:58;;;;;;;2.63;1.05;;;;;;;;;;5062231;28;20048;-72
2023/10/26 05:25:28;;;;;;;4.63;1.05;;;;;;;;;;5062355;28;20506;-71
2023/10/26 05:27:59;;;;;;;2.00;1.13;;;;;;;;;;5061527;28;20511;-72
2023/10/26 05:30:33;;;;;;;4.15;1.20;;;;;;;;;;5058965;28;20056;-72
2023/10/26 05:33:09;;;;;;;6.90;1.17;;;;;;;;;;5062347;28;20421;-72
2023/10/26 05:35:40;;;;;;;3.88;1.15;;;;;;;;;;5062108;28;20515;-72
2023/10/26 05:38:11;;;;;;;5.97;1.35;;;;;;;;;;5061742;28;20052;-71
2023/10/26 05:41:14;;;;;;;3.25;1.25;;;;;;;;;;5061590;28;20052;-71
2023/10/26 05:44:19;;;;;;;2.60;1.30;;;;;;;;;;5060296;28;20561;-71
2023/10/26 05:46:49;;;;;;;2.88;1.30;;;;;;;;;;5061355;28;20044;-72
2023/10/26 05:49:20;;;;;;;6.28;1.20;;;;;;;;;;5062386;28;20041;-72
2023/10/26 05:51:53;;;;;;;2.08;1.20;;;;;;;;;;5060736;28;20048;-72
2023/10/26 05:54:26;;;;;;;3.65;1.40;;;;;;;;;;5061785;28;20053;-71
2023/10/26 05:56:56;;;;;;;1.85;1.13;;;;;;;;;;5062401;28;20495;-72
2023/10/26 05:59:26;;;;;;;5.97;1.30;;;;;;;;;;5060427;28;20052;-73
2023/10/26 06:02:16;;;;;;;4.78;1.42;;;;;;;;;;5061178;28;20048;-71
2023/10/26 06:05:06;;;;;;;1.95;1.10;;;;;;;;;;5061403;28;20071;-72
2023/10/26 06:07:37;;;;;;;3.80;1.30;;;;;;;;;;5061151;28;20525;-72
2023/10/26 06:10:11;;;;;;;2.92;1.40;;;;;;;;;;5061933;28;20053;-73
2023/10/26 06:12:42;;;;;;;4.07;1.33;;;;;;;;;;5042469;28;20056;-72
2023/10/26 06:15:13;;;;;;;5.50;1.40;;;;;;;;;;5059783;28;20057;-72
2023/10/26 06:17:43;;;;;;;3.72;1.23;;;;;;;;;;5061967;28;20533;-72
2023/10/26 06:20:16;;;;;;;4.88;1.27;;;;;;;;;;5061811;28;20506;-72
2023/10/26 06:22:50;;;;;;;3.80;1.00;;;;;;;;;;5060741;28;20445;-72
2023/10/26 06:25:21;;;;;;;4.80;1.33;;;;;;;;;;5061123;28;20047;-73
2023/10/26 06:27:50;;;;;;;2.65;1.30;;;;;;;;;;5059686;28;20048;-72
2023/10/26 06:30:45;;;;;;;5.55;1.20;;;;;;;;;;5059933;28;20048;-73
2023/10/26 06:33:35;;;;;;;4.00;1.20;;;;;;;;;;5060249;28;20048;-72
2023/10/26 06:36:06;;;;;;;4.13;1.27;;;;;;;;;;5061239;28;20059;-73
2023/10/26 06:38:38;;;;;;;4.45;1.10;;;;;;;;;;5061441;28;20049;-72
2023/10/26 06:41:09;;;;;;;2.90;1.27;;;;;;;;;;5061717;28;20056;-72
2023/10/26 06:43:40;;;;;;;4.20;1.13;;;;;;;;;;5064293;28;20578;-72
2023/10/26 06:46:12;;;;;;;2.20;1.35;;;;;;;;;;5065183;28;20545;-72
2023/10/26 06:48:51;;;;;;;2.72;1.10;;;;;;;;;;5063473;28;20079;-72
2023/10/26 06:51:22;;;;;;;4.18;1.38;;;;;;;;;;5064881;28;20763;-72
2023/10/26 06:53:53;;;;;;;4.15;1.10;;;;;;;;;;5062962;28;20064;-72
2023/10/26 06:56:24;;;;;;;1.67;1.30;;;;;;;;;;5064540;28;20045;-71
2023/10/26 06:58:55;;;;;;;2.00;1.20;;;;;;;;;;5062440;28;20045;-72
2023/10/26 07:01:25;;;;;;;2.17;1.05;;;;;;;;;;5064014;28;20434;-71
2023/10/26 07:04:15;;;;;;;2.30;1.10;;;;;;;;;;5064256;28;20055;-73
2023/10/26 07:06:46;;;;;;;4.78;1.30;;;;;;;;;;5064134;28;20056;-72
2023/10/26 07:09:17;;;;;;;6.22;1.55;;;;;;;;;;5063874;28;20499;-71
2023/10/26 07:11:47;;;;;;;4.60;1.20;;;;;;;;;;5063964;28;20055;-72
2023/10/26 07:14:17;;;;;;;1.92;1.08;;;;;;;;;;5063178;28;20510;-72
2023/10/26 07:16:50;;;;;;;4.15;1.40;;;;;;;;;;5064458;28;20040;-72
2023/10/26 07:19:20;;;;;;;2.78;1.00;;;;;;;;;;5062606;28;20149;-72
2023/10/26 07:21:50;;;;;;;2.90;1.23;;;;;;;;;;5063708;28;20053;-72
2023/10/26 07:24:20;;;;;;;4.50;1.25;;;;;;;;;;5064162;28;20052;-73
2023/10/26 07:26:57;;;;;;;10.00;1.30;;;;;;;;;;5062451;28;20075;-72
2023/10/26 07:29:30;;;;;;;5.50;1.10;;;;;;;;;;5044160;28;20056;-72
2023/10/26 07:32:00;;;;;;;5.72;1.20;;;;;;;;;;5060982;28;20549;-72
2023/10/26 07:34:30;;;;;;;2.08;1.13;;;;;;;;;;5060754;28;20052;-72
2023/10/26 07:37:00;;;;;;;4.10;1.40;;;;;;;;;;5059274;28;21262;-72
2023/10/26 07:39:34;;;;;;;7.00;1.60;;;;;;;;;;5059453;28;20040;-72
2023/10/26 07:42:16;;;;;;;4.65;1.25;;;;;;;;;;5059263;28;20502;-73
2023/10/26 07:44:46;;;;;;;4.50;1.10;;;;;;;;;;5060935;28;20045;-72
2023/10/26 07:47:17;;;;;;;2.95;0.90;;;;;;;;;;5060682;28;20411;-72
2023/10/26 07:49:48;;;;;;;8.70;1.40;;;;;;;;;;5060523;28;20048;-72
2023/10/26 07:52:18;;;;;;;2.65;1.58;;;;;;;;;;5058802;28;20068;-72
2023/10/26 07:54:50;;;;;;;7.88;1.23;;;;;;;;;;5060348;28;20411;-73
2023/10/26 07:57:21;;;;;;;5.72;1.30;;;;;;;;;;5060680;28;20059;-72
2023/10/26 07:59:52;;;;;;;4.82;1.35;;;;;;;;;;5060460;28;20530;-73
2023/10/26 08:02:22;;;;;;;9.10;1.10;;;;;;;;;;5060529;28;20053;-72
2023/10/26 08:04:53;;;;;;;4.15;0.93;;;;;;;;;;5059090;28;20396;-72
2023/10/26 08:07:23;;;;;;;2.22;1.20;;;;;;;;;;5060881;28;20395;-72
2023/10/26 08:09:53;;;;;;;2.33;1.00;;;;;;;;;;5060296;28;20053;-72
2023/10/26 08:12:24;;;;;;;2.72;0.90;;;;;;;;;;5060179;28;20601;-72
2023/10/26 08:14:57;;;;;;;3.85;1.20;;;;;;;;;;5060134;28;20048;-72
2023/10/26 08:17:47;;;;;;;3.80;1.00;;;;;;;;;;5059883;28;20048;-72
2023/10/26 08:20:17;;;;;;;5.22;1.30;;;;;;;;;;5059778;28;20072;-72
2023/10/26 08:22:48;;;;;;;4.03;1.10;;;;;;;;;;5059871;28;20048;-73
2023/10/26 08:25:20;;;;;;;2.72;1.17;;;;;;;;;;5060061;28;20051;-72
2023/10/26 08:27:54;;;;;;;4.00;1.10;;;;;;;;;;5059730;28;20064;-72
2023/10/26 08:30:25;;;;;;;4.38;1.10;;;;;;;;;;5060172;28;20499;-72
2023/10/26 08:32:56;;;;;;;6.63;1.00;;;;;;;;;;5059903;28;20044;-73
2023/10/26 08:35:28;;;;;;;8.25;1.33;;;;;;;;;;5061092;28;20072;-73
2023/10/26 08:37:58;;;;;;;3.75;1.00;;;;;;;;;;5061272;28;20059;-72
2023/10/26 08:40:28;;;;;;;5.72;1.70;;;;;;;;;;5062140;28;20036;-73
2023/10/26 08:43:04;;;;;;;6.80;1.50;;;;;;;;;;5062165;28;20411;-72
2023/10/26 08:45:36;;;;;;;4.15;1.27;;;;;;;;;;5060621;28;20067;-73
2023/10/26 08:48:09;;;;;;;3.33;1.17;;;;;;;;;;5062324;28;20041;-72
2023/10/26 08:50:42;;;;;;;8.10;1.23;;;;;;;;;;5062108;28;20506;-72
2023/10/26 08:53:13;;;;;;;2.63;1.13;;;;;;;;;;5062504;28;20056;-73
2023/10/26 08:55:45;;;;;;;4.97;1.45;;;;;;;;;;5062519;28;20051;-73
2023/10/26 08:58:19;;;;;;;3.80;1.27;;;;;;;;;;5061969;28;20044;-74
2023/10/26 09:00:53;;;;;;;5.93;1.70;;;;;;;;;;5062516;28;21065;-75
2023/10/26 09:03:23;;;;;;;5.07;1.25;;;;;;;;;;5060646;28;20503;-75
2023/10/26 09:05:56;;;;;;;4.07;1.10;;;;;;;;;;5060105;28;20051;-72
2023/10/26 09:08:30;;;;;;;2.92;1.20;;;;;;;;;;5062074;28;20056;-73
2023/10/26 09:11:12;;;;;;;2.85;1.65;;;;;;;;;;5060338;28;20049;-74
2023/10/26 09:14:18;;;;;;;6.68;1.27;;;;;;;;;;5062527;28;20603;-74
2023/10/26 09:17:00;;;;;;;2.85;1.10;;;;;;;;;;5061753;28;20071;-72
2023/10/26 09:19:41;;;;;;;11.18;1.70;;;;;;;;;;5060750;28;20055;-73
2023/10/26 09:22:13;;;;;;;5.88;1.23;;;;;;;;;;5061759;28;20056;-73
2023/10/26 09:24:43;;;;;;;5.88;1.30;;;;;;;;;;5062290;28;20048;-72
2023/10/26 09:27:18;;;;;;;7.65;2.40;;;;;;;;;;5062193;28;20053;-73
2023/10/26 09:29:48;;;;;;;7.45;2.20;;;;;;;;;;5063212;28;20059;-73
2023/10/26 09:32:18;;;;;;;11.88;2.17;;;;;;;;;;5061532;28;20049;-73
2023/10/26 09:34:49;;;;;;;12.40;2.53;;;;;;;;;;5043427;28;20422;-72
2023/10/26 09:37:20;;;;;;;8.20;1.20;;;;;;;;;;5061936;28;20054;-72
2023/10/26 09:39:52;;;;;;;3.85;1.10;;;;;;;;;;5061496;28;20044;-72
2023/10/26 09:42:43;;;;;;;4.97;1.40;;;;;;;;;;5061083;28;20048;-78
2023/10/26 09:45:13;;;;;;;9.50;1.35;;;;;;;;;;5061989;28;20516;-74
2023/10/26 09:47:44;;;;;;;9.45;1.33;;;;;;;;;;5061982;28;20397;-73
2023/10/26 09:50:15;;;;;;;4.10;1.25;;;;;;;;;;5061378;28;20415;-72
2023/10/26 09:53:27;;;;;;;8.05;1.65;;;;;;;;;;5062414;28;20123;-72
2023/10/26 09:56:12;;;;;;;8.45;1.10;;;;;;;;;;5058226;28;20060;-74
2023/10/26 09:58:43;;;;;;;6.22;1.30;;;;;;;;;;5060838;28;20708;-73
2023/10/26 10:01:39;;;;;;;8.85;1.27;;;;;;;;;;5062110;28;20053;-73
2023/10/26 10:04:13;;;;;;;7.93;1.20;;;;;;;;;;5061213;28;20048;-73
2023/10/26 10:06:54;;;;;;;7.18;1.30;;;;;;;;;;5061811;28;20142;-72
2023/10/26 10:09:27;;;;;;;6.90;1.75;;;;;;;;;;5061600;28;20051;-78
2023/10/26 10:12:13;;;;;;;4.65;1.08;;;;;;;;;;5061185;28;20838;-73
2023/10/26 10:15:01;;;;;;;4.95;1.10;;;;;;;;;;5061386;28;20056;-77
2023/10/26 10:17:51;;;;;;;8.95;1.20;;;;;;;;;;5064421;28;20059;-73
2023/10/26 10:20:21;;;;;;;8.13;1.25;;;;;;;;;;5064297;28;20052;-77
2023/10/26 10:22:58;;;;;;;5.75;1.00;;;;;;;;;;5064549;28;20048;-72
2023/10/26 10:26:05;;;;;;;3.80;1.08;;;;;;;;;;5064857;28;20048;-73
2023/10/26 10:28:55;;;;;;;3.08;0.80;;;;;;;;;;5002770;28;20065;-75
2023/10/26 10:31:38;;;;;;;2.70;0.90;;;;;;;;;;5064114;28;20080;-75
2023/10/26 10:34:10;;;;;;;3.40;0.93;;;;;;;;;;5076361;28;20044;-72
2023/10/26 10:37:26;;;;;;;3.80;1.10;;;;;;;;;;5085211;28;20048;-72
2023/10/26 10:40:14;;;;;;;5.18;1.23;;;;;;;;;;5084791;28;20506;-72
2023/10/26 10:42:50;;;;;;;1.33;0.82;;;;;;;;;;5085380;28;20048;-73
2023/10/26 10:45:22;;;;;;;6.25;1.10;;;;;;;;;;5085310;28;20622;-72
2023/10/26 10:47:53;;;;;;;5.18;1.10;;;;;;;;;;5083026;28;20052;-74
2023/10/26 10:50:28;;;;;;;6.80;1.08;;;;;;;;;;5084988;28;20048;-72
2023/10/26 10:52:59;;;;;;;4.43;0.90;;;;;;;;;;5066530;28;20534;-73
2023/10/26 10:55:39;;;;;;;5.15;1.10;;;;;;;;;;5084434;28;20044;-73
2023/10/26 10:58:10;;;;;;;4.57;1.02;;;;;;;;;;5084912;28;20059;-73
2023/10/26 11:00:49;;;;;;;7.53;1.20;;;;;;;;;;5084703;28;20064;-74
2023/10/26 11:03:21;;;;;;;4.55;1.00;;;;;;;;;;5084509;28;20048;-74
2023/10/26 11:05:51;;;;;;;6.07;1.30;;;;;;;;;;5084984;28;20044;-72
2023/10/26 11:08:22;;;;;;;5.90;1.00;;;;;;;;;;5085448;28;20623;-73
2023/10/26 11:10:52;;;;;;;3.15;0.93;;;;;;;;;;5084402;28;20418;-73
2023/10/26 11:13:23;;;;;;;3.55;1.27;;;;;;;;;;5084002;28;20055;-73
2023/10/26 11:15:53;;;;;;;4.80;1.08;;;;;;;;;;5084489;28;20713;-77
2023/10/26 11:18:24;;;;;;;4.68;1.13;;;;;;;;;;5083362;28;20079;-83
2023/10/26 11:20:55;;;;;;;9.32;1.00;;;;;;;;;;5084306;28;20364;-73
2023/10/26 11:23:25;;;;;;;9.85;2.33;;;;;;;;;;5084548;28;20055;-73
2023/10/26 11:25:56;;;;;;;7.78;1.40;;;;;;;;;;5085608;28;20043;-72
2023/10/26 11:28:35;;;;;;;3.63;1.23;;;;;;;;;;5083873;28;20495;-74
2023/10/26 11:31:07;;;;;;;2.47;0.95;;;;;;;;;;5081713;28;20059;-72
2023/10/26 11:33:42;;;;;;;4.95;1.05;;;;;;;;;;5083658;28;20048;-73
2023/10/26 11:36:14;;;;;;;4.05;1.42;;;;;;;;;;5080800;28;20051;-73
2023/10/26 11:38:51;;;;;;;8.38;1.27;;;;;;;;;;5083103;28;20106;-73
2023/10/26 11:41:29;;;;;;;3.92;0.70;;;;;;;;;;5083416;28;20439;-72
2023/10/26 11:44:03;;;;;;;4.32;0.95;;;;;;;;;;5082941;28;20052;-73
2023/10/26 11:46:37;;;;;;;4.65;1.08;;;;;;;;;;5083144;28;20051;-71
2023/10/26 11:49:09;;;;;;;3.95;1.00;;;;;;;;;;5083571;28;20415;-76
2023/10/26 11:51:47;;;;;;;9.38;1.35;;;;;;;;;;5084044;28;20048;-74
2023/10/26 11:55:00;;;;;;;6.40;1.20;;;;;;;;;;5083690;28;20067;-72
2023/10/26 11:57:41;;;;;;;3.53;1.00;;;;;;;;;;5079775;28;20414;-72
2023/10/26 12:00:14;;;;;;;2.25;0.77;;;;;;;;;;5083281;28;20040;-73
2023/10/26 12:02:45;;;;;;;4.68;1.00;;;;;;;;;;5083485;28;20051;-77
2023/10/26 12:05:18;;;;;;;9.73;1.10;;;;;;;;;;5081626;28;20056;-73
2023/10/26 12:07:49;;;;;;;4.53;0.85;;;;;;;;;;5081771;28;20044;-73
2023/10/26 12:10:22;;;;;;;6.03;1.35;;;;;;;;;;5082995;28;20418;-73
2023/10/26 12:12:53;;;;;;;4.38;0.93;;;;;;;;;;5083387;28;20051;-77
2023/10/26 12:15:24;;;;;;;8.70;1.23;;;;;;;;;;5082899;28;20743;-72
2023/10/26 12:17:54;;;;;;;2.83;1.08;;;;;;;;;;5082694;28;20414;-72
2023/10/26 12:20:25;;;;;;;5.30;0.88;;;;;;;;;;5082763;28;20058;-73
2023/10/26 12:22:55;;;;;;;2.42;1.02;;;;;;;;;;5084085;28;20050;-74
2023/10/26 12:25:25;;;;;;;7.80;1.00;;;;;;;;;;5082805;28;20051;-72
2023/10/26 12:27:58;;;;;;;2.83;1.15;;;;;;;;;;5081572;28;20057;-72
2023/10/26 12:30:50;;;;;;;5.78;1.40;;;;;;;;;;5082759;28;20056;-73
2023/10/26 12:33:23;;;;;;;4.45;1.33;;;;;;;;;;5082951;28;20059;-72
2023/10/26 12:35:56;;;;;;;5.78;1.48;;;;;;;;;;5081978;28;20067;-73
2023/10/26 12:38:26;;;;;;;4.13;1.65;;;;;;;;;;5082787;28;20055;-78
2023/10/26 12:40:57;;;;;;;5.07;1.65;;;;;;;;;;5080990;28;20051;-73
2023/10/26 12:43:27;;;;;;;4.38;1.65;;;;;;;;;;5082417;28;20048;-74
2023/10/26 12:45:58;;;;;;;4.93;2.17;;;;;;;;;;5081227;28;20055;-72
2023/10/26 12:48:29;;;;;;;2.38;1.60;;;;;;;;;;5082406;28;20040;-72
2023/10/26 12:51:00;;;;;;;9.95;2.58;;;;;;;;;;5082434;28;20521;-72
2023/10/26 12:53:31;;;;;;;3.35;2.05;;;;;;;;;;5082627;28;21013;-73
2023/10/26 12:56:01;;;;;;;8.43;2.67;;;;;;;;;;5082427;28;20048;-72
2023/10/26 12:58:32;;;;;;;9.73;2.60;;;;;;;;;;5082012;28;20540;-74
2023/10/26 13:01:03;;;;;;;6.55;2.03;;;;;;;;;;5082325;28;20517;-73
2023/10/26 13:03:34;;;;;;;5.53;1.60;;;;;;;;;;5082996;28;20048;-76
2023/10/26 13:06:04;;;;;;;3.33;1.67;;;;;;;;;;5082113;28;20609;-73
2023/10/26 13:08:35;;;;;;;6.05;1.75;;;;;;;;;;5082855;28;20052;-73
2023/10/26 13:11:28;;;;;;;7.82;2.00;;;;;;;;;;5082404;28;20513;-73
2023/10/26 13:14:27;;;;;;;6.07;1.65;;;;;;;;;;5081598;28;20048;-74
2023/10/26 13:17:01;;;;;;;4.95;1.70;;;;;;;;;;5077789;28;20052;-73
2023/10/26 13:19:32;;;;;;;6.30;1.70;;;;;;;;;;5081813;28;20052;-75
2023/10/26 13:22:42;;;;;;;7.40;1.70;;;;;;;;;;5080405;28;20044;-73
2023/10/26 13:25:13;;;;;;;3.72;1.60;;;;;;;;;;5080595;28;20051;-73
2023/10/26 13:27:44;;;;;;;7.45;1.80;;;;;;;;;;5082311;28;20052;-73
2023/10/26 13:30:15;;;;;;;9.85;1.90;;;;;;;;;;5081845;28;20494;-73
2023/10/26 13:32:45;;;;;;;8.70;1.70;;;;;;;;;;5082082;28;20044;-73
2023/10/26 13:35:16;;;;;;;6.82;1.50;;;;;;;;;;5082360;28;20797;-73
2023/10/26 13:37:47;;;;;;;5.25;1.55;;;;;;;;;;5079951;28;20071;-74
2023/10/26 13:40:18;;;;;;;4.60;2.17;;;;;;;;;;5081357;28;20052;-73
2023/10/26 13:42:50;;;;;;;6.18;2.33;;;;;;;;;;5081170;28;20519;-75
2023/10/26 13:45:20;;;;;;;5.43;1.65;;;;;;;;;;5081213;28;20059;-74
2023/10/26 13:47:54;;;;;;;3.10;1.48;;;;;;;;;;5081800;28;20051;-73
2023/10/26 13:50:24;;;;;;;6.80;2.10;;;;;;;;;;5082540;28;20048;-73
2023/10/26 13:52:55;;;;;;;5.47;1.75;;;;;;;;;;5086623;28;20048;-73
2023/10/26 13:55:26;;;;;;;7.13;1.80;;;;;;;;;;5085929;28;20047;-73
2023/10/26 13:57:57;;;;;;;5.10;1.60;;;;;;;;;;5086056;28;20048;-73
2023/10/26 14:00:27;;;;;;;3.85;1.50;;;;;;;;;;5085309;28;20044;-73
2023/10/26 14:02:57;;;;;;;4.53;1.63;;;;;;;;;;5085691;28;20044;-73
2023/10/26 14:05:32;;;;;;;4.55;1.77;;;;;;;;;;5085179;28;20052;-73
2023/10/26 14:08:03;;;;;;;3.80;1.60;;;;;;;;;;5084764;28;20067;-74
2023/10/26 14:10:33;;;;;;;4.00;1.90;;;;;;;;;;5083230;28;20430;-74
2023/10/26 14:13:04;;;;;;;6.53;1.58;;;;;;;;;;5085690;28;20881;-73
2023/10/26 14:15:35;;;;;;;2.60;1.45;;;;;;;;;;5085355;28;20044;-74
2023/10/26 14:18:06;;;;;;;6.75;1.80;;;;;;;;;;5085397;28;20070;-72
2023/10/26 14:20:36;;;;;;;5.97;1.63;;;;;;;;;;5086033;28;20385;-74
2023/10/26 14:23:07;;;;;;;6.80;2.33;;;;;;;;;;5086346;28;20584;-73
2023/10/26 14:25:37;;;;;;;8.98;2.00;;;;;;;;;;5085558;28;20039;-73
2023/10/26 14:28:08;;;;;;;3.30;1.80;;;;;;;;;;5084527;28;20058;-73
2023/10/26 14:30:38;;;;;;;4.68;2.10;;;;;;;;;;5085118;28;20052;-73
2023/10/26 14:33:08;;;;;;;4.85;1.88;;;;;;;;;;5083475;28;20536;-76
2023/10/26 14:35:39;;;;;;;3.15;1.98;;;;;;;;;;5084855;28;20067;-75
2023/10/26 14:38:12;;;;;;;6.07;2.00;;;;;;;;;;5085284;28;20502;-73
2023/10/26 14:40:42;;;;;;;3.90;2.10;;;;;;;;;;5084751;28;20048;-73
2023/10/26 14:43:14;;;;;;;4.32;1.70;;;;;;;;;;5084871;28;20055;-74
2023/10/26 14:45:44;;;;;;;4.20;2.05;;;;;;;;;;5085232;28;20055;-74
2023/10/26 14:48:15;;;;;;;4.47;1.52;;;;;;;;;;5084933;28;20395;-73
2023/10/26 14:50:45;;;;;;;5.50;2.03;;;;;;;;;;5085481;28;20040;-78
2023/10/26 14:53:15;;;;;;;4.22;2.05;;;;;;;;;;5083395;28;20051;-72
2023/10/26 14:55:47;;;;;;;6.03;1.85;;;;;;;;;;5084690;28;20047;-73
2023/10/26 14:58:18;;;;;;;7.35;2.00;;;;;;;;;;5085439;28;20051;-71
2023/10/26 15:00:50;;;;;;;4.22;1.80;;;;;;;;;;5084661;28;20414;-72
2023/10/26 15:03:20;;;;;;;7.28;1.88;;;;;;;;;;5083808;28;20056;-72
2023/10/26 15:05:51;;;;;;;3.25;1.38;;;;;;;;;;5082331;28;20059;-72
2023/10/26 15:08:25;;;;;;;6.93;1.60;;;;;;;;;;5085299;28;20044;-72
2023/10/26 15:11:01;;;;;;;5.10;1.67;;;;;;;;;;5083798;28;20545;-71
2023/10/26 15:13:53;;;;;;;9.00;2.42;;;;;;;;;;5084508;28;20055;-74
2023/10/26 15:16:30;;;;;;;3.75;1.50;;;;;;;;;;5082345;28;20052;-72
2023/10/26 15:19:04;;;;;;;3.38;1.60;;;;;;;;;;5084527;28;20044;-76
2023/10/26 15:21:34;;;;;;;9.70;1.65;;;;;;;;;;5084226;28;20391;-73